Time;durP1;ratioP1;P1;durP2;ratioP2;P2;SDS_P1;SDS_P2;PMS_P1;PMS_P2;Temp;Humidity;BMP_temperature;BMP_pressure;BME280_temperature;BME280_humidity;BME280_pressure;Samples;Min_cycle;Max_cycle;Signal;HPM_P1;HPM_P2
2022/10/17 00:01:09;;;;;;;4.73;2.60;;;13.80;99.90;;;;;;5066864;28;20823;-74
2022/10/17 00:03:54;;;;;;;7.13;2.60;;;13.70;99.90;;;;;;5064225;28;20450;-75
2022/10/17 00:06:40;;;;;;;8.23;3.23;;;13.70;99.90;;;;;;5067329;28;20511;-75
2022/10/17 00:09:28;;;;;;;4.23;2.50;;;13.70;99.90;;;;;;5066596;28;20970;-75
2022/10/17 00:12:13;;;;;;;11.00;2.30;;;13.70;99.90;;;;;;5067168;28;20529;-75
2022/10/17 00:14:59;;;;;;;7.20;3.70;;;13.60;99.90;;;;;;5067947;28;20417;-75
2022/10/17 00:17:45;;;;;;;6.30;2.77;;;13.50;99.90;;;;;;5065168;28;21060;-75
2022/10/17 00:20:31;;;;;;;11.03;3.73;;;13.40;99.90;;;;;;5064075;28;20468;-75
2022/10/17 00:23:17;;;;;;;15.97;3.80;;;13.40;99.90;;;;;;5067426;28;20835;-75
2022/10/17 00:26:05;;;;;;;6.30;3.03;;;13.30;99.90;;;;;;5068028;28;20412;-75
2022/10/17 00:28:52;;;;;;;10.33;2.53;;;13.30;99.90;;;;;;5067218;28;20507;-75
2022/10/17 00:31:38;;;;;;;8.33;2.47;;;13.30;99.90;;;;;;5075801;28;20435;-76
2022/10/17 00:34:24;;;;;;;16.10;2.50;;;13.40;99.90;;;;;;5071582;28;20470;-76
2022/10/17 00:37:10;;;;;;;10.70;2.03;;;13.50;99.90;;;;;;5078540;28;20525;-75
2022/10/17 00:39:55;;;;;;;3.33;2.50;;;13.60;99.90;;;;;;5069040;28;20516;-76
2022/10/17 00:42:43;;;;;;;13.30;3.00;;;13.50;99.90;;;;;;5071000;28;20613;-76
2022/10/17 00:45:31;;;;;;;15.10;3.17;;;13.50;99.90;;;;;;5070543;28;20459;-76
2022/10/17 00:48:17;;;;;;;10.00;2.10;;;13.50;99.90;;;;;;5069475;28;20413;-76
2022/10/17 00:51:03;;;;;;;7.50;2.23;;;13.50;99.90;;;;;;5069791;28;20472;-75
2022/10/17 00:53:50;;;;;;;10.50;2.60;;;13.50;99.90;;;;;;5072719;28;20934;-75
2022/10/17 00:56:37;;;;;;;8.07;2.67;;;13.50;99.90;;;;;;5072112;28;20495;-76
2022/10/17 00:59:25;;;;;;;8.17;2.90;;;13.50;99.90;;;;;;5074535;28;20427;-76
2022/10/17 01:02:14;;;;;;;7.30;2.10;;;13.40;99.90;;;;;;5067853;28;20944;-76
2022/10/17 01:05:00;;;;;;;6.30;2.20;;;13.40;99.90;;;;;;5074053;28;20450;-76
2022/10/17 01:07:47;;;;;;;12.60;2.13;;;13.30;99.90;;;;;;5075190;28;20386;-76
2022/10/17 01:10:40;;;;;;;8.70;2.13;;;13.20;99.90;;;;;;5069610;28;20404;-76
2022/10/17 01:13:34;;;;;;;9.87;1.70;;;13.20;99.90;;;;;;5071511;28;20458;-75
2022/10/17 01:16:32;;;;;;;9.73;2.13;;;13.20;99.90;;;;;;5076248;28;20418;-75
2022/10/17 01:19:44;;;;;;;4.80;2.27;;;13.10;99.90;;;;;;5072593;28;20528;-76
2022/10/17 01:22:37;;;;;;;9.37;2.10;;;13.20;99.90;;;;;;5068145;28;20795;-76
2022/10/17 01:25:30;;;;;;;4.67;2.33;;;13.10;99.90;;;;;;5063379;28;20960;-76
2022/10/17 01:28:38;;;;;;;2.80;2.10;;;13.10;99.90;;;;;;5070382;28;20438;-75
2022/10/17 01:31:30;;;;;;;12.80;2.53;;;13.10;99.90;;;;;;5068612;28;20447;-76
2022/10/17 01:34:21;;;;;;;15.83;2.90;;;13.10;99.90;;;;;;5062318;28;20449;-75
2022/10/17 01:37:13;;;;;;;6.30;2.10;;;13.10;99.90;;;;;;5072118;28;20450;-76
2022/10/17 01:40:09;;;;;;;9.40;1.90;;;13.10;99.90;;;;;;5073083;28;20424;-76
2022/10/17 01:43:00;;;;;;;6.37;2.60;;;13.20;99.90;;;;;;5077202;28;20477;-76
2022/10/17 01:45:50;;;;;;;10.10;2.10;;;13.20;99.90;;;;;;5073617;28;20893;-75
2022/10/17 01:48:40;;;;;;;15.00;3.47;;;13.10;99.90;;;;;;5075036;28;20447;-75
2022/10/17 01:51:30;;;;;;;5.03;2.30;;;13.20;99.90;;;;;;5071398;28;20956;-76
2022/10/17 01:54:21;;;;;;;13.97;3.67;;;13.10;99.90;;;;;;5068608;28;20462;-76
2022/10/17 01:57:13;;;;;;;6.50;1.83;;;13.00;99.90;;;;;;5073000;28;21065;-76
2022/10/17 02:00:00;;;;;;;3.20;1.50;;;12.90;99.90;;;;;;5075646;28;20530;-76
2022/10/17 02:02:48;;;;;;;7.57;2.13;;;12.90;99.90;;;;;;5074514;28;21082;-75
2022/10/17 02:05:38;;;;;;;4.63;1.77;;;12.90;99.90;;;;;;5072900;28;20426;-76
2022/10/17 02:08:29;;;;;;;4.27;2.70;;;13.00;99.90;;;;;;5071387;28;20438;-76
2022/10/17 02:11:17;;;;;;;6.43;2.20;;;13.00;99.90;;;;;;5070487;28;20792;-76
2022/10/17 02:14:19;;;;;;;10.13;1.80;;;13.00;99.90;;;;;;5076032;28;20462;-76
2022/10/17 02:17:12;;;;;;;6.57;1.70;;;12.90;99.90;;;;;;5067922;28;20471;-76
2022/10/17 02:20:09;;;;;;;10.37;1.97;;;13.00;99.90;;;;;;5070080;28;20472;-75
2022/10/17 02:23:03;;;;;;;9.53;2.00;;;12.90;99.90;;;;;;5071838;28;20533;-76
2022/10/17 02:25:55;;;;;;;3.30;1.83;;;12.90;99.90;;;;;;5072827;28;20409;-76
2022/10/17 02:28:47;;;;;;;11.87;2.23;;;12.80;99.90;;;;;;5074899;28;20892;-76
2022/10/17 02:31:39;;;;;;;4.07;2.13;;;12.90;99.90;;;;;;5068912;28;20525;-75
2022/10/17 02:34:29;;;;;;;9.67;2.10;;;12.90;99.90;;;;;;5063427;28;20522;-76
2022/10/17 02:37:22;;;;;;;12.40;2.40;;;12.90;99.90;;;;;;5069858;28;20452;-76
2022/10/17 02:40:13;;;;;;;4.07;1.60;;;12.90;99.90;;;;;;5072736;28;20549;-75
2022/10/17 02:42:59;;;;;;;8.93;2.80;;;12.90;99.90;;;;;;5069331;28;20474;-76
2022/10/17 02:45:47;;;;;;;6.27;2.00;;;12.90;99.90;;;;;;5075072;28;20413;-75
2022/10/17 02:48:38;;;;;;;9.97;2.77;;;12.90;99.90;;;;;;5073098;28;20433;-76
2022/10/17 02:51:32;;;;;;;9.10;2.50;;;12.90;99.90;;;;;;5071783;28;20974;-76
2022/10/17 02:54:21;;;;;;;8.57;4.10;;;12.90;99.90;;;;;;5063258;28;20483;-76
2022/10/17 02:57:14;;;;;;;9.83;2.80;;;12.80;99.90;;;;;;5071559;28;20481;-75
2022/10/17 03:00:02;;;;;;;8.50;2.20;;;12.70;99.90;;;;;;5074373;28;20540;-76
2022/10/17 03:02:50;;;;;;;3.57;2.23;;;12.70;99.90;;;;;;5069972;28;20477;-76
2022/10/17 03:05:36;;;;;;;4.70;2.90;;;12.70;99.90;;;;;;5073628;28;20449;-76
2022/10/17 03:08:22;;;;;;;9.10;2.20;;;12.60;99.90;;;;;;5076722;28;20454;-76
2022/10/17 03:11:08;;;;;;;6.20;2.10;;;12.60;99.90;;;;;;5074781;28;21113;-75
2022/10/17 03:13:55;;;;;;;6.77;2.37;;;12.70;99.90;;;;;;5075076;28;20465;-76
2022/10/17 03:16:40;;;;;;;8.87;2.13;;;12.60;99.90;;;;;;5077580;28;20397;-76
2022/10/17 03:19:26;;;;;;;13.03;2.67;;;12.50;99.90;;;;;;5073699;28;20437;-75
2022/10/17 03:22:12;;;;;;;3.70;2.60;;;12.60;99.90;;;;;;5074541;28;20968;-75
2022/10/17 03:24:57;;;;;;;4.57;3.90;;;12.60;99.90;;;;;;5075817;28;20456;-75
2022/10/17 03:27:43;;;;;;;18.73;3.47;;;12.70;99.90;;;;;;5074744;28;20396;-76
2022/10/17 03:30:30;;;;;;;8.23;2.70;;;12.70;99.90;;;;;;5075334;28;20408;-76
2022/10/17 03:33:15;;;;;;;7.93;2.50;;;12.80;99.90;;;;;;5070117;28;20449;-76
2022/10/17 03:36:06;;;;;;;6.73;2.00;;;12.80;99.90;;;;;;5076294;28;20421;-76
2022/10/17 03:38:54;;;;;;;9.27;2.70;;;12.60;99.90;;;;;;5072880;28;20445;-74
2022/10/17 03:41:40;;;;;;;7.80;2.80;;;12.50;99.90;;;;;;5078308;28;20426;-76
2022/10/17 03:44:25;;;;;;;7.27;2.40;;;12.40;99.90;;;;;;5081272;28;20458;-76
2022/10/17 03:47:12;;;;;;;7.90;3.17;;;12.40;99.90;;;;;;5077329;28;20475;-76
2022/10/17 03:49:58;;;;;;;18.03;3.10;;;12.40;99.90;;;;;;5080722;28;20436;-76
2022/10/17 03:52:47;;;;;;;10.17;2.80;;;12.50;99.90;;;;;;5078391;28;20470;-76
2022/10/17 03:55:32;;;;;;;14.67;3.20;;;12.50;99.90;;;;;;5081130;28;20886;-76
2022/10/17 03:58:18;;;;;;;9.97;3.10;;;12.40;99.90;;;;;;5075475;28;20481;-76
2022/10/17 04:01:05;;;;;;;17.47;3.13;;;12.30;99.90;;;;;;5073310;28;20425;-75
2022/10/17 04:03:53;;;;;;;22.80;3.30;;;12.40;99.90;;;;;;5078118;28;20474;-76
2022/10/17 04:06:39;;;;;;;6.23;2.60;;;12.40;99.90;;;;;;5075686;28;20517;-74
2022/10/17 04:09:24;;;;;;;12.97;2.80;;;12.30;99.90;;;;;;5072328;28;20544;-76
2022/10/17 04:12:10;;;;;;;10.57;3.03;;;12.40;99.90;;;;;;5072234;28;20804;-76
2022/10/17 04:14:56;;;;;;;6.27;3.60;;;12.40;99.90;;;;;;5077302;28;20438;-76
2022/10/17 04:17:42;;;;;;;18.37;4.23;;;12.40;99.90;;;;;;5075867;28;20517;-76
2022/10/17 04:20:29;;;;;;;3.93;2.97;;;12.40;99.90;;;;;;5075833;28;20864;-76
2022/10/17 04:23:14;;;;;;;4.63;2.20;;;12.40;99.90;;;;;;5073126;28;20866;-78
2022/10/17 04:26:02;;;;;;;9.20;2.70;;;12.40;99.90;;;;;;5072747;28;20491;-77
2022/10/17 04:28:47;;;;;;;10.40;3.00;;;12.40;99.90;;;;;;5073850;28;20443;-77
2022/10/17 04:31:33;;;;;;;3.30;2.37;;;12.40;99.90;;;;;;5072700;28;20485;-77
2022/10/17 04:34:19;;;;;;;16.50;5.53;;;12.40;99.90;;;;;;5071452;28;20486;-77
2022/10/17 04:37:06;;;;;;;7.40;3.50;;;12.40;99.90;;;;;;5073058;28;21026;-77
2022/10/17 04:39:51;;;;;;;17.70;3.17;;;12.40;99.90;;;;;;5075228;28;20442;-77
2022/10/17 04:42:37;;;;;;;7.40;3.17;;;12.50;99.90;;;;;;5070938;28;20444;-77
2022/10/17 04:45:22;;;;;;;12.83;3.00;;;12.40;99.90;;;;;;5070810;28;20438;-77
2022/10/17 04:48:08;;;;;;;13.53;3.77;;;12.30;99.90;;;;;;5074749;28;20534;-77
2022/10/17 04:50:54;;;;;;;12.63;3.30;;;12.20;99.90;;;;;;5073670;28;20865;-77
2022/10/17 04:53:43;;;;;;;6.23;3.33;;;12.10;99.90;;;;;;5076680;28;20826;-77
2022/10/17 04:56:28;;;;;;;6.00;3.37;;;11.90;99.90;;;;;;5072950;28;20437;-77
2022/10/17 04:59:14;;;;;;;13.17;3.63;;;11.90;99.90;;;;;;5072360;28;20441;-77
2022/10/17 05:02:00;;;;;;;7.23;3.57;;;12.00;99.90;;;;;;5066981;28;20413;-77
2022/10/17 05:04:45;;;;;;;8.73;3.20;;;12.00;99.90;;;;;;5073493;28;20846;-77
2022/10/17 05:07:31;;;;;;;5.13;3.43;;;12.10;99.90;;;;;;5075376;28;20795;-77
2022/10/17 05:10:18;;;;;;;11.77;3.20;;;12.20;99.90;;;;;;5068422;28;20497;-76
2022/10/17 05:13:04;;;;;;;10.90;3.57;;;12.20;99.90;;;;;;5076408;28;20473;-77
2022/10/17 05:15:50;;;;;;;7.60;3.23;;;12.20;99.90;;;;;;5075286;28;20426;-77
2022/10/17 05:18:35;;;;;;;9.37;3.00;;;12.20;99.90;;;;;;5071156;28;21118;-77
2022/10/17 05:21:22;;;;;;;5.17;2.93;;;12.30;99.90;;;;;;5068738;28;20585;-77
2022/10/17 05:24:09;;;;;;;7.70;3.70;;;12.20;99.90;;;;;;5073019;28;20832;-77
2022/10/17 05:26:56;;;;;;;22.00;3.40;;;12.20;99.90;;;;;;5074013;28;20401;-77
2022/10/17 05:29:42;;;;;;;5.33;3.47;;;12.20;99.90;;;;;;5076098;28;20400;-77
2022/10/17 05:32:28;;;;;;;7.60;2.80;;;12.30;99.90;;;;;;5065432;28;20509;-77
2022/10/17 05:35:13;;;;;;;9.53;2.90;;;12.40;99.90;;;;;;5076155;28;20979;-76
2022/10/17 05:37:59;;;;;;;20.50;3.07;;;12.20;99.90;;;;;;5075929;28;20451;-76
2022/10/17 05:40:45;;;;;;;14.43;3.20;;;12.10;99.90;;;;;;5071104;28;20472;-76
2022/10/17 05:43:34;;;;;;;8.20;4.00;;;12.10;99.90;;;;;;5077279;28;20605;-78
2022/10/17 05:46:19;;;;;;;4.50;2.90;;;12.00;99.90;;;;;;5076854;28;20493;-77
2022/10/17 05:49:05;;;;;;;6.53;2.67;;;12.00;99.90;;;;;;5072932;28;20397;-77
2022/10/17 05:51:51;;;;;;;7.17;3.20;;;11.90;99.90;;;;;;5078201;28;20421;-77
2022/10/17 05:54:37;;;;;;;4.50;3.30;;;11.90;99.90;;;;;;5073441;28;20450;-77
2022/10/17 05:57:25;;;;;;;10.77;4.23;;;12.00;99.90;;;;;;5074965;28;20457;-78
2022/10/17 06:00:13;;;;;;;9.40;4.63;;;11.90;99.90;;;;;;5072107;28;20446;-77
2022/10/17 06:02:59;;;;;;;16.10;3.90;;;11.80;99.90;;;;;;5077010;28;20433;-77
2022/10/17 06:05:45;;;;;;;12.20;3.80;;;11.90;99.90;;;;;;5075084;28;20427;-77
2022/10/17 06:08:30;;;;;;;13.50;4.90;;;11.90;99.90;;;;;;5072824;28;20507;-77
2022/10/17 06:11:16;;;;;;;7.47;4.10;;;12.00;99.90;;;;;;5070235;28;20774;-77
2022/10/17 06:14:01;;;;;;;12.43;5.17;;;11.90;99.90;;;;;;5076117;28;20785;-75
2022/10/17 06:16:48;;;;;;;10.63;4.60;;;12.00;99.90;;;;;;5073064;28;20497;-77
2022/10/17 06:19:34;;;;;;;12.00;5.20;;;12.00;99.90;;;;;;5070711;28;20445;-77
2022/10/17 06:22:20;;;;;;;13.30;4.40;;;12.00;99.90;;;;;;5069438;28;20450;-76
2022/10/17 06:25:06;;;;;;;7.73;4.00;;;11.90;99.90;;;;;;5072376;28;20438;-77
2022/10/17 06:27:52;;;;;;;7.40;4.60;;;12.00;99.90;;;;;;5075162;28;20450;-77
2022/10/17 06:30:38;;;;;;;14.10;6.10;;;12.10;99.90;;;;;;5073980;28;20523;-75
2022/10/17 06:33:26;;;;;;;7.73;4.80;;;12.10;99.90;;;;;;5072791;28;20488;-77
2022/10/17 06:36:13;;;;;;;6.57;4.33;;;12.10;99.90;;;;;;5072990;28;20518;-76
2022/10/17 06:38:58;;;;;;;6.20;3.60;;;12.10;99.90;;;;;;5076294;28;20482;-77
2022/10/17 06:41:44;;;;;;;9.20;3.50;;;12.20;99.90;;;;;;5080326;28;20522;-77
2022/10/17 06:44:30;;;;;;;11.93;4.10;;;12.20;99.90;;;;;;5077635;28;20533;-77
2022/10/17 06:47:16;;;;;;;12.03;3.90;;;12.20;99.90;;;;;;5072298;28;20445;-77
2022/10/17 06:50:03;;;;;;;9.73;3.37;;;12.30;99.90;;;;;;5073325;28;20485;-76
2022/10/17 06:52:51;;;;;;;18.10;3.47;;;12.40;99.90;;;;;;5072755;28;20491;-77
2022/10/17 06:55:36;;;;;;;4.00;2.90;;;12.50;99.90;;;;;;5074114;28;20457;-77
2022/10/17 06:58:22;;;;;;;8.40;3.30;;;12.60;99.90;;;;;;5073931;28;20486;-76
2022/10/17 07:01:09;;;;;;;4.23;2.80;;;12.70;99.90;;;;;;5072517;28;20434;-77
2022/10/17 07:03:55;;;;;;;5.03;2.90;;;12.80;99.90;;;;;;5076586;28;20462;-77
2022/10/17 07:06:42;;;;;;;15.27;2.97;;;12.80;99.90;;;;;;5075949;28;20458;-77
2022/10/17 07:09:28;;;;;;;4.90;3.20;;;12.90;99.90;;;;;;5073333;28;20434;-77
2022/10/17 07:12:14;;;;;;;11.60;2.77;;;12.80;99.90;;;;;;5074222;28;20442;-77
2022/10/17 07:15:00;;;;;;;4.37;3.90;;;12.90;99.90;;;;;;5076715;28;20435;-77
2022/10/17 07:17:49;;;;;;;6.13;3.40;;;12.90;99.90;;;;;;5073818;28;20425;-77
2022/10/17 07:20:34;;;;;;;12.27;4.50;;;13.00;99.90;;;;;;5074600;28;20458;-77
2022/10/17 07:23:22;;;;;;;5.43;3.50;;;13.10;99.90;;;;;;5075188;28;20451;-77
2022/10/17 07:26:10;;;;;;;5.13;4.43;;;13.20;99.90;;;;;;5077223;28;20818;-77
2022/10/17 07:28:56;;;;;;;7.73;4.60;;;13.30;99.90;;;;;;5077432;28;20393;-77
2022/10/17 07:31:41;;;;;;;8.00;5.70;;;13.30;99.90;;;;;;5082240;28;20430;-76
2022/10/17 07:34:30;;;;;;;6.83;5.40;;;13.40;99.90;;;;;;5077013;28;20433;-77
2022/10/17 07:37:15;;;;;;;10.10;5.30;;;13.40;99.90;;;;;;5077227;28;20426;-76
2022/10/17 07:40:03;;;;;;;12.20;7.03;;;13.50;99.90;;;;;;5069560;28;20458;-76
2022/10/17 07:42:49;;;;;;;11.20;7.30;;;13.60;99.90;;;;;;5075364;28;20501;-77
2022/10/17 07:45:34;;;;;;;6.87;6.13;;;13.70;99.90;;;;;;5078402;28;20947;-76
2022/10/17 07:48:21;;;;;;;10.70;7.40;;;13.80;99.90;;;;;;5077177;28;20538;-76
2022/10/17 07:51:09;;;;;;;10.63;7.50;;;13.90;99.90;;;;;;5081757;28;20430;-77
2022/10/17 07:53:55;;;;;;;11.77;7.53;;;13.90;99.90;;;;;;5076715;28;20460;-77
2022/10/17 07:56:42;;;;;;;9.33;8.07;;;13.90;99.90;;;;;;5077904;28;20420;-77
2022/10/17 07:59:27;;;;;;;8.30;4.57;;;13.80;99.90;;;;;;5069558;28;21022;-77
2022/10/17 08:02:21;;;;;;;6.40;5.80;;;13.90;99.90;;;;;;5074059;28;20548;-77
2022/10/17 08:05:07;;;;;;;11.03;5.20;;;14.00;99.90;;;;;;5077931;28;20843;-76
2022/10/17 08:07:53;;;;;;;6.97;4.77;;;14.10;99.90;;;;;;5074812;28;20437;-77
2022/10/17 08:10:39;;;;;;;17.10;5.60;;;14.20;99.90;;;;;;5075897;28;20485;-76
2022/10/17 08:13:26;;;;;;;7.33;4.93;;;14.20;99.90;;;;;;5077672;28;20953;-77
2022/10/17 08:16:13;;;;;;;9.50;5.77;;;14.40;99.90;;;;;;5076148;28;20471;-77
2022/10/17 08:18:58;;;;;;;9.20;4.53;;;14.40;99.90;;;;;;5075249;28;20673;-75
2022/10/17 08:21:45;;;;;;;10.00;7.00;;;14.40;99.90;;;;;;5081795;28;20454;-77
2022/10/17 08:24:31;;;;;;;12.43;5.63;;;14.50;99.90;;;;;;5072596;28;20489;-77
2022/10/17 08:27:22;;;;;;;19.63;9.13;;;14.60;99.90;;;;;;5077511;28;20434;-76
2022/10/17 08:30:10;;;;;;;14.37;8.63;;;14.70;99.90;;;;;;5069098;28;20417;-77
2022/10/17 08:32:56;;;;;;;23.23;8.07;;;14.90;99.90;;;;;;5075558;28;20478;-77
2022/10/17 08:35:42;;;;;;;14.40;7.87;;;14.90;99.90;;;;;;5070897;28;20775;-76
2022/10/17 08:38:28;;;;;;;7.87;6.03;;;15.00;99.90;;;;;;5071084;28;20418;-76
2022/10/17 08:41:20;;;;;;;11.73;7.40;;;15.10;99.90;;;;;;5073342;28;20532;-77
2022/10/17 08:44:18;;;;;;;13.63;7.27;;;15.20;99.90;;;;;;5068241;28;20449;-77
2022/10/17 08:47:09;;;;;;;9.10;6.80;;;15.30;99.90;;;;;;5066515;28;20444;-76
2022/10/17 08:49:58;;;;;;;8.33;6.00;;;15.50;99.90;;;;;;5074020;28;20421;-76
2022/10/17 08:52:49;;;;;;;11.63;5.63;;;15.60;99.90;;;;;;5072352;28;21030;-77
2022/10/17 08:55:38;;;;;;;9.50;6.77;;;15.70;99.90;;;;;;5071363;28;20433;-77
2022/10/17 08:58:29;;;;;;;8.17;5.60;;;15.80;99.90;;;;;;5069565;28;20491;-76
2022/10/17 09:01:32;;;;;;;9.77;5.40;;;15.90;99.90;;;;;;5066909;28;20426;-76
2022/10/17 09:04:57;;;;;;;10.30;5.70;;;16.10;99.90;;;;;;5069612;28;20437;-77
2022/10/17 09:07:49;;;;;;;18.37;6.37;;;16.20;99.90;;;;;;5070853;28;20413;-77
2022/10/17 09:10:46;;;;;;;14.40;6.40;;;16.30;99.90;;;;;;5071081;28;20926;-76
2022/10/17 09:13:50;;;;;;;9.60;7.43;;;16.40;99.90;;;;;;5069119;28;20469;-76
2022/10/17 09:16:54;;;;;;;17.13;7.53;;;16.60;99.90;;;;;;5067526;28;20454;-76
2022/10/17 09:19:45;;;;;;;15.10;7.57;;;16.60;99.90;;;;;;5071752;28;20560;-77
2022/10/17 09:22:37;;;;;;;13.53;7.30;;;16.80;99.90;;;;;;5068670;28;20440;-76
2022/10/17 09:25:23;;;;;;;12.13;5.47;;;16.80;99.90;;;;;;5067543;28;21091;-77
2022/10/17 09:28:14;;;;;;;11.13;5.43;;;17.00;99.90;;;;;;5068469;28;20505;-76
2022/10/17 09:31:01;;;;;;;13.40;6.00;;;17.10;99.90;;;;;;5072691;28;20417;-76
2022/10/17 09:33:50;;;;;;;8.83;5.03;;;17.30;99.90;;;;;;5074866;28;20515;-76
2022/10/17 09:36:41;;;;;;;7.90;4.10;;;17.40;99.90;;;;;;5073230;28;20537;-76
2022/10/17 09:39:30;;;;;;;11.60;4.57;;;17.60;99.90;;;;;;5077991;28;20445;-75
2022/10/17 09:42:26;;;;;;;8.23;3.60;;;17.80;99.90;;;;;;5073576;28;20442;-75
2022/10/17 09:45:23;;;;;;;13.80;4.17;;;18.00;99.90;;;;;;5072595;28;20471;-75
2022/10/17 09:48:15;;;;;;;5.63;4.27;;;18.10;99.90;;;;;;5069495;28;20485;-75
2022/10/17 09:51:02;;;;;;;5.33;3.50;;;18.30;99.90;;;;;;5077920;28;20405;-75
2022/10/17 09:53:53;;;;;;;14.57;3.47;;;18.50;99.90;;;;;;5071430;28;20977;-75
2022/10/17 09:56:57;;;;;;;7.83;3.20;;;18.60;99.90;;;;;;5068542;28;20480;-76
2022/10/17 09:59:45;;;;;;;6.63;3.40;;;18.80;99.90;;;;;;5075872;28;20823;-77
2022/10/17 10:02:35;;;;;;;7.33;3.20;;;18.90;99.90;;;;;;5074457;28;20433;-76
2022/10/17 10:05:21;;;;;;;5.07;2.57;;;19.10;99.90;;;;;;5077185;28;20812;-76
2022/10/17 10:08:14;;;;;;;4.63;3.00;;;19.20;99.90;;;;;;5074476;28;20480;-76
2022/10/17 10:11:05;;;;;;;10.70;4.00;;;19.30;99.90;;;;;;5076346;28;20432;-76
2022/10/17 10:13:50;;;;;;;4.27;3.30;;;19.40;99.90;;;;;;5075890;28;20470;-77
2022/10/17 10:16:42;;;;;;;14.10;2.87;;;19.50;99.90;;;;;;5072006;28;20401;-76
2022/10/17 10:19:31;;;;;;;5.70;3.00;;;19.60;99.90;;;;;;5071611;28;20449;-77
2022/10/17 10:22:18;;;;;;;6.83;2.93;;;19.70;99.90;;;;;;5074462;28;20393;-76
2022/10/17 10:25:12;;;;;;;5.80;2.70;;;19.80;99.90;;;;;;5072405;28;20472;-77
2022/10/17 10:27:59;;;;;;;5.40;2.90;;;20.00;99.90;;;;;;5075453;28;20942;-77
2022/10/17 10:30:49;;;;;;;11.53;2.80;;;20.10;99.90;;;;;;5073183;28;20428;-76
2022/10/17 10:33:43;;;;;;;10.43;3.10;;;20.20;99.90;;;;;;5074530;28;20483;-75
2022/10/17 10:36:48;;;;;;;3.67;2.80;;;20.30;99.90;;;;;;5069280;28;20875;-77
2022/10/17 10:39:38;;;;;;;4.43;2.80;;;20.50;99.90;;;;;;5077514;28;20455;-77
2022/10/17 10:42:27;;;;;;;4.63;2.73;;;20.60;99.90;;;;;;5073688;28;20409;-77
2022/10/17 10:45:18;;;;;;;11.83;2.43;;;20.80;99.90;;;;;;5073738;28;20427;-76
2022/10/17 10:48:14;;;;;;;4.27;2.97;;;21.00;99.90;;;;;;5074559;28;20502;-76
2022/10/17 10:51:04;;;;;;;8.53;2.60;;;21.10;99.90;;;;;;5071154;28;20421;-76
2022/10/17 10:53:55;;;;;;;3.53;2.67;;;21.30;99.90;;;;;;5071937;28;20472;-77
2022/10/17 10:56:43;;;;;;;11.37;2.50;;;21.40;99.90;;;;;;5072178;28;20430;-76
2022/10/17 10:59:34;;;;;;;4.33;2.70;;;21.40;99.90;;;;;;5068724;28;20970;-76
2022/10/17 11:02:28;;;;;;;5.87;2.60;;;21.50;99.90;;;;;;5072635;28;20438;-77
2022/10/17 11:05:20;;;;;;;5.50;2.00;;;21.60;99.90;;;;;;5072613;28;20414;-77
2022/10/17 11:08:11;;;;;;;6.03;2.77;;;21.70;99.90;;;;;;5066274;28;20443;-77
2022/10/17 11:11:16;;;;;;;4.20;2.70;;;21.80;99.90;;;;;;5071775;28;20413;-76
2022/10/17 11:14:09;;;;;;;5.47;2.60;;;21.90;99.90;;;;;;5066816;28;20458;-76
2022/10/17 11:17:03;;;;;;;5.27;2.77;;;21.90;99.90;;;;;;5069923;28;20824;-77
2022/10/17 11:19:59;;;;;;;4.43;2.20;;;22.00;99.90;;;;;;5074707;28;20994;-77
2022/10/17 11:22:48;;;;;;;5.50;2.50;;;21.90;99.90;;;;;;5079255;28;20453;-77
2022/10/17 11:25:35;;;;;;;3.40;2.10;;;22.00;99.90;;;;;;5076232;28;20476;-77
2022/10/17 11:28:23;;;;;;;3.20;2.07;;;22.00;99.90;;;;;;5073902;28;20426;-77
2022/10/17 11:31:13;;;;;;;5.03;2.77;;;22.00;99.90;;;;;;5079527;28;20397;-76
2022/10/17 11:34:03;;;;;;;4.50;2.63;;;22.00;99.90;;;;;;5078684;28;20454;-76
2022/10/17 11:36:54;;;;;;;4.37;2.27;;;22.10;99.90;;;;;;5079297;28;20818;-77
2022/10/17 11:39:47;;;;;;;5.17;2.60;;;22.10;99.90;;;;;;5076328;28;20521;-77
2022/10/17 11:42:37;;;;;;;9.13;3.50;;;22.10;99.90;;;;;;5081885;28;20983;-77
2022/10/17 11:45:26;;;;;;;7.10;2.73;;;22.10;99.90;;;;;;5076571;28;20426;-75
2022/10/17 11:48:21;;;;;;;4.47;2.23;;;22.10;99.90;;;;;;5080744;28;21027;-77
2022/10/17 11:51:09;;;;;;;8.30;2.90;;;22.20;99.90;;;;;;5077308;28;20446;-76
2022/10/17 11:54:02;;;;;;;5.93;2.67;;;22.20;99.90;;;;;;5082957;28;20528;-76
2022/10/17 11:56:58;;;;;;;7.67;2.57;;;22.30;99.90;;;;;;5078092;28;20393;-77
2022/10/17 11:59:56;;;;;;;3.13;2.50;;;22.30;99.90;;;;;;5078350;28;20478;-76
2022/10/17 12:02:48;;;;;;;12.03;2.83;;;22.40;99.90;;;;;;5078168;28;20474;-77
2022/10/17 12:05:42;;;;;;;4.93;2.90;;;22.40;99.90;;;;;;5081057;28;20423;-77
2022/10/17 12:08:36;;;;;;;5.97;3.27;;;22.40;99.90;;;;;;5080199;28;20394;-77
2022/10/17 12:11:34;;;;;;;4.07;2.70;;;22.40;99.90;;;;;;5076092;28;20429;-77
2022/10/17 12:14:41;;;;;;;6.20;2.90;;;22.40;99.90;;;;;;5072836;28;20448;-77
2022/10/17 12:17:34;;;;;;;4.17;2.27;;;22.60;99.90;;;;;;5072181;28;20435;-76
2022/10/17 12:20:32;;;;;;;5.70;2.43;;;22.70;99.90;;;;;;5073443;28;20466;-76
2022/10/17 12:23:25;;;;;;;4.07;2.40;;;22.80;99.90;;;;;;5068838;28;20689;-75
2022/10/17 12:26:24;;;;;;;6.60;3.00;;;22.80;99.90;;;;;;5070947;28;20809;-75
2022/10/17 12:29:26;;;;;;;4.00;3.00;;;22.90;99.90;;;;;;5069789;28;20796;-75
2022/10/17 12:32:12;;;;;;;4.90;2.47;;;23.10;99.90;;;;;;5068773;28;20393;-75
2022/10/17 12:34:58;;;;;;;8.53;3.60;;;23.20;99.90;;;;;;5067415;28;20417;-75
2022/10/17 12:38:19;;;;;;;10.07;3.87;;;23.20;99.90;;;;;;5072764;28;20492;-75
2022/10/17 12:41:06;;;;;;;9.17;3.20;;;23.30;99.90;;;;;;5070418;28;21058;-75
2022/10/17 12:43:53;;;;;;;6.13;2.20;;;23.40;99.90;;;;;;5068008;28;20869;-75
2022/10/17 12:46:50;;;;;;;6.37;2.70;;;23.60;99.90;;;;;;5071433;28;20461;-74
2022/10/17 12:49:44;;;;;;;3.90;3.00;;;23.60;99.90;;;;;;5069761;28;20490;-74
2022/10/17 12:52:56;;;;;;;4.40;2.43;;;23.80;99.90;;;;;;5072594;28;20459;-74
2022/10/17 12:55:42;;;;;;;5.10;2.57;;;23.90;97.40;;;;;;5076373;28;20539;-75
2022/10/17 12:58:29;;;;;;;10.47;2.83;;;23.90;93.40;;;;;;5075417;28;20458;-75
2022/10/17 13:01:18;;;;;;;6.00;2.23;;;24.10;94.30;;;;;;5066518;28;20606;-74
2022/10/17 13:04:09;;;;;;;6.80;3.10;;;24.20;99.90;;;;;;5064119;28;20532;-74
2022/10/17 13:06:57;;;;;;;4.93;2.60;;;24.30;97.80;;;;;;5068211;28;20614;-74
2022/10/17 13:09:44;;;;;;;4.30;2.70;;;24.40;95.40;;;;;;5071309;28;20845;-75
2022/10/17 13:12:32;;;;;;;4.73;2.50;;;24.50;94.10;;;;;;5067306;28;20954;-75
2022/10/17 13:15:19;;;;;;;6.70;2.63;;;24.50;95.80;;;;;;5066835;28;20451;-77
2022/10/17 13:18:06;;;;;;;5.63;3.03;;;24.50;96.80;;;;;;5069155;28;20441;-76
2022/10/17 13:20:58;;;;;;;8.07;2.77;;;24.50;93.30;;;;;;5072934;28;20482;-75
2022/10/17 13:23:48;;;;;;;8.83;3.40;;;24.50;98.10;;;;;;5068261;28;20559;-75
2022/10/17 13:26:33;;;;;;;13.40;3.33;;;24.40;96.80;;;;;;5071188;28;20446;-76
2022/10/17 13:29:20;;;;;;;9.13;2.60;;;24.50;95.20;;;;;;5073581;28;20446;-76
2022/10/17 13:32:06;;;;;;;7.20;2.67;;;24.70;94.00;;;;;;5062432;28;20500;-75
2022/10/17 13:35:09;;;;;;;9.37;2.57;;;24.70;95.70;;;;;;5064154;28;20461;-76
2022/10/17 13:37:59;;;;;;;7.67;2.47;;;24.70;93.00;;;;;;5075260;28;20466;-76
2022/10/17 13:40:44;;;;;;;6.83;3.33;;;24.70;93.90;;;;;;5071885;28;20486;-76
2022/10/17 13:43:32;;;;;;;6.40;2.87;;;24.80;92.70;;;;;;5068128;28;20530;-76
2022/10/17 13:46:28;;;;;;;3.43;2.30;;;24.80;85.50;;;;;;5071329;28;20960;-76
2022/10/17 13:49:22;;;;;;;5.50;2.77;;;24.80;83.70;;;;;;5076531;28;20970;-76
2022/10/17 13:52:19;;;;;;;4.73;2.50;;;24.80;78.50;;;;;;5068967;28;20451;-76
2022/10/17 13:55:16;;;;;;;4.97;3.37;;;24.90;81.30;;;;;;5074890;28;20450;-76
2022/10/17 13:58:16;;;;;;;12.43;2.77;;;25.10;80.70;;;;;;5068663;28;20430;-76
2022/10/17 14:01:02;;;;;;;10.97;3.03;;;25.10;83.40;;;;;;5072248;28;20470;-76
2022/10/17 14:03:48;;;;;;;7.50;3.17;;;25.00;75.10;;;;;;5065962;28;20474;-76
2022/10/17 14:06:35;;;;;;;5.40;3.00;;;25.20;78.80;;;;;;5072689;28;20423;-76
2022/10/17 14:09:23;;;;;;;5.30;3.10;;;25.30;80.90;;;;;;5074983;28;20426;-76
2022/10/17 14:12:12;;;;;;;8.47;2.77;;;25.30;82.80;;;;;;5075183;28;20423;-77
2022/10/17 14:14:57;;;;;;;7.70;2.70;;;25.00;77.50;;;;;;5073005;28;20744;-76
2022/10/17 14:17:44;;;;;;;4.83;3.80;;;24.70;81.90;;;;;;5074552;28;20802;-76
2022/10/17 14:20:30;;;;;;;6.13;3.13;;;24.30;90.50;;;;;;5070726;28;20605;-76
2022/10/17 14:23:35;;;;;;;16.93;3.00;;;23.90;93.30;;;;;;5070109;28;20471;-77
2022/10/17 14:26:22;;;;;;;7.63;2.97;;;23.40;94.50;;;;;;5068719;28;20480;-75
2022/10/17 14:29:22;;;;;;;13.33;3.13;;;23.10;99.90;;;;;;5074663;28;20485;-76
2022/10/17 14:32:13;;;;;;;7.47;2.67;;;22.80;99.90;;;;;;5073648;28;20760;-76
2022/10/17 14:35:01;;;;;;;12.37;3.20;;;22.60;99.90;;;;;;5080588;28;20419;-76
2022/10/17 14:37:49;;;;;;;11.70;2.80;;;22.30;99.90;;;;;;5072396;28;20788;-76